sensor_id;sensor_type;location;lat;lon;timestamp;P1;durP1;ratioP1;P2;durP2;ratioP2
31095;SDS011;17749;51.962;8.560;2022-10-31T06:03:25;35.22;;;19.00;;
31095;SDS011;17749;51.962;8.560;2022-10-31T06:08:26;34.05;;;19.60;;
31095;SDS011;17749;51.962;8.560;2022-10-31T06:10:56;35.97;;;20.10;;
31095;SDS011;17749;51.962;8.560;2022-10-31T06:13:43;33.33;;;19.70;;
31095;SDS011;17749;51.962;8.560;2022-10-31T06:16:23;40.97;;;21.40;;
31095;SDS011;17749;51.962;8.560;2022-10-31T06:18:53;43.45;;;21.98;;
31095;SDS011;17749;51.962;8.560;2022-10-31T06:21:20;45.58;;;24.67;;
31095;SDS011;17749;51.962;8.560;2022-10-31T06:23:49;42.60;;;21.27;;
31095;SDS011;17749;51.962;8.560;2022-10-31T06:26:42;36.78;;;22.23;;
31095;SDS011;17749;51.962;8.560;2022-10-31T06:29:09;41.83;;;23.42;;
31095;SDS011;17749;51.962;8.560;2022-10-31T06:31:55;43.10;;;24.58;;
31095;SDS011;17749;51.962;8.560;2022-10-31T06:34:22;43.15;;;23.75;;
31095;SDS011;17749;51.962;8.560;2022-10-31T06:36:49;42.65;;;24.10;;
31095;SDS011;17749;51.962;8.560;2022-10-31T06:39:20;41.83;;;24.08;;
31095;SDS011;17749;51.962;8.560;2022-10-31T06:41:47;45.15;;;22.48;;
31095;SDS011;17749;51.962;8.560;2022-10-31T06:44:18;45.17;;;24.15;;
31095;SDS011;17749;51.962;8.560;2022-10-31T06:46:54;41.40;;;24.13;;
31095;SDS011;17749;51.962;8.560;2022-10-31T06:49:39;43.40;;;24.83;;
31095;SDS011;17749;51.962;8.560;2022-10-31T06:52:19;38.40;;;22.65;;
31095;SDS011;17749;51.962;8.560;2022-10-31T06:54:46;43.70;;;24.88;;
31095;SDS011;17749;51.962;8.560;2022-10-31T06:57:13;44.88;;;26.23;;
31095;SDS011;17749;51.962;8.560;2022-10-31T06:59:40;51.67;;;26.52;;
31095;SDS011;17749;51.962;8.560;2022-10-31T07:02:08;48.13;;;27.52;;
31095;SDS011;17749;51.962;8.560;2022-10-31T07:04:38;52.30;;;25.90;;
31095;SDS011;17749;51.962;8.560;2022-10-31T07:07:05;47.00;;;27.13;;
31095;SDS011;17749;51.962;8.560;2022-10-31T07:09:34;45.88;;;25.63;;
31095;SDS011;17749;51.962;8.560;2022-10-31T07:12:02;43.13;;;26.65;;
31095;SDS011;17749;51.962;8.560;2022-10-31T07:14:33;51.00;;;27.65;;
31095;SDS011;17749;51.962;8.560;2022-10-31T07:17:01;61.47;;;29.50;;
31095;SDS011;17749;51.962;8.560;2022-10-31T07:19:35;68.57;;;32.13;;
31095;SDS011;17749;51.962;8.560;2022-10-31T07:22:02;60.08;;;31.65;;
31095;SDS011;17749;51.962;8.560;2022-10-31T07:24:29;56.88;;;30.40;;
31095;SDS011;17749;51.962;8.560;2022-10-31T07:27:15;64.50;;;34.72;;
31095;SDS011;17749;51.962;8.560;2022-10-31T07:29:44;64.50;;;32.22;;
31095;SDS011;17749;51.962;8.560;2022-10-31T07:32:11;63.75;;;33.88;;
31095;SDS011;17749;51.962;8.560;2022-10-31T07:34:45;79.50;;;35.60;;
31095;SDS011;17749;51.962;8.560;2022-10-31T07:37:21;73.20;;;38.17;;
31095;SDS011;17749;51.962;8.560;2022-10-31T07:39:50;80.00;;;40.42;;
31095;SDS011;17749;51.962;8.560;2022-10-31T07:42:17;72.45;;;38.53;;
31095;SDS011;17749;51.962;8.560;2022-10-31T07:44:44;91.50;;;42.90;;
31095;SDS011;17749;51.962;8.560;2022-10-31T07:47:30;69.93;;;38.50;;
31095;SDS011;17749;51.962;8.560;2022-10-31T07:50:27;87.22;;;41.40;;
31095;SDS011;17749;51.962;8.560;2022-10-31T07:53:15;80.30;;;43.35;;
31095;SDS011;17749;51.962;8.560;2022-10-31T07:55:49;88.32;;;41.42;;
31095;SDS011;17749;51.962;8.560;2022-10-31T07:58:17;96.70;;;44.85;;
31095;SDS011;17749;51.962;8.560;2022-10-31T08:00:46;85.40;;;40.83;;
31095;SDS011;17749;51.962;8.560;2022-10-31T08:03:26;95.00;;;44.58;;
31095;SDS011;17749;51.962;8.560;2022-10-31T08:06:08;82.47;;;43.05;;
31095;SDS011;17749;51.962;8.560;2022-10-31T08:08:38;89.93;;;44.35;;
31095;SDS011;17749;51.962;8.560;2022-10-31T08:11:07;94.33;;;44.07;;
31095;SDS011;17749;51.962;8.560;2022-10-31T08:13:34;86.65;;;44.35;;
31095;SDS011;17749;51.962;8.560;2022-10-31T08:16:01;82.95;;;42.03;;
31095;SDS011;17749;51.962;8.560;2022-10-31T08:18:34;81.78;;;42.60;;
31095;SDS011;17749;51.962;8.560;2022-10-31T08:21:07;80.30;;;42.13;;
31095;SDS011;17749;51.962;8.560;2022-10-31T08:23:34;93.95;;;43.97;;
31095;SDS011;17749;51.962;8.560;2022-10-31T08:26:01;85.90;;;43.22;;
31095;SDS011;17749;51.962;8.560;2022-10-31T08:28:29;85.03;;;42.00;;
31095;SDS011;17749;51.962;8.560;2022-10-31T08:30:57;94.55;;;44.90;;
31095;SDS011;17749;51.962;8.560;2022-10-31T08:33:40;87.03;;;42.13;;
31095;SDS011;17749;51.962;8.560;2022-10-31T08:36:07;86.72;;;42.38;;
31095;SDS011;17749;51.962;8.560;2022-10-31T08:38:51;79.80;;;42.38;;
31095;SDS011;17749;51.962;8.560;2022-10-31T08:41:26;86.45;;;41.78;;
31095;SDS011;17749;51.962;8.560;2022-10-31T08:43:53;80.55;;;42.78;;
31095;SDS011;17749;51.962;8.560;2022-10-31T08:46:20;79.18;;;41.10;;
31095;SDS011;17749;51.962;8.560;2022-10-31T08:48:47;81.72;;;41.85;;
31095;SDS011;17749;51.962;8.560;2022-10-31T08:51:16;88.03;;;42.70;;
31095;SDS011;17749;51.962;8.560;2022-10-31T08:53:43;78.22;;;39.70;;
31095;SDS011;17749;51.962;8.560;2022-10-31T08:56:33;77.68;;;40.28;;
31095;SDS011;17749;51.962;8.560;2022-10-31T08:59:04;72.30;;;38.95;;
31095;SDS011;17749;51.962;8.560;2022-10-31T09:01:51;73.88;;;39.58;;
31095;SDS011;17749;51.962;8.560;2022-10-31T09:04:18;82.15;;;42.80;;
31095;SDS011;17749;51.962;8.560;2022-10-31T09:06:45;83.32;;;41.47;;
31095;SDS011;17749;51.962;8.560;2022-10-31T09:09:32;75.28;;;39.97;;
31095;SDS011;17749;51.962;8.560;2022-10-31T09:11:59;72.88;;;40.10;;
31095;SDS011;17749;51.962;8.560;2022-10-31T09:14:45;75.28;;;39.03;;
31095;SDS011;17749;51.962;8.560;2022-10-31T09:17:29;81.28;;;41.38;;
31095;SDS011;17749;51.962;8.560;2022-10-31T09:20:21;88.07;;;42.00;;
31095;SDS011;17749;51.962;8.560;2022-10-31T09:22:55;82.47;;;41.17;;
31095;SDS011;17749;51.962;8.560;2022-10-31T09:25:23;82.13;;;42.08;;
31095;SDS011;17749;51.962;8.560;2022-10-31T09:28:12;75.13;;;40.55;;
31095;SDS011;17749;51.962;8.560;2022-10-31T09:30:42;78.40;;;38.63;;
31095;SDS011;17749;51.962;8.560;2022-10-31T09:33:31;76.40;;;38.20;;
31095;SDS011;17749;51.962;8.560;2022-10-31T09:36:18;72.53;;;37.63;;
31095;SDS011;17749;51.962;8.560;2022-10-31T09:38:45;70.25;;;34.35;;
31095;SDS011;17749;51.962;8.560;2022-10-31T09:52:19;62.00;;;30.15;;
31095;SDS011;17749;51.962;8.560;2022-10-31T09:54:56;48.72;;;25.73;;
31095;SDS011;17749;51.962;8.560;2022-10-31T09:57:31;48.95;;;26.10;;
31095;SDS011;17749;51.962;8.560;2022-10-31T10:00:03;49.47;;;24.45;;
31095;SDS011;17749;51.962;8.560;2022-10-31T10:05:49;38.13;;;20.75;;
31095;SDS011;17749;51.962;8.560;2022-10-31T10:08:36;42.63;;;21.48;;
31095;SDS011;17749;51.962;8.560;2022-10-31T10:17:10;34.33;;;17.08;;
31095;SDS011;17749;51.962;8.560;2022-10-31T10:19:43;34.50;;;16.35;;
31095;SDS011;17749;51.962;8.560;2022-10-31T10:24:53;30.10;;;16.20;;
31095;SDS011;17749;51.962;8.560;2022-10-31T10:30:20;24.27;;;13.60;;
31095;SDS011;17749;51.962;8.560;2022-10-31T10:32:51;29.80;;;14.45;;
31095;SDS011;17749;51.962;8.560;2022-10-31T10:35:26;25.02;;;12.82;;
31095;SDS011;17749;51.962;8.560;2022-10-31T10:40:41;24.17;;;12.32;;
31095;SDS011;17749;51.962;8.560;2022-10-31T10:49:03;23.30;;;12.07;;
31095;SDS011;17749;51.962;8.560;2022-10-31T10:54:43;24.17;;;11.50;;
31095;SDS011;17749;51.962;8.560;2022-10-31T10:57:27;19.73;;;12.27;;
31095;SDS011;17749;51.962;8.560;2022-10-31T11:00:25;20.90;;;12.20;;
31095;SDS011;17749;51.962;8.560;2022-10-31T11:02:56;22.67;;;12.10;;
31095;SDS011;17749;51.962;8.560;2022-10-31T11:08:03;21.55;;;11.68;;
31095;SDS011;17749;51.962;8.560;2022-10-31T11:10:30;25.80;;;10.35;;
31095;SDS011;17749;51.962;8.560;2022-10-31T11:13:00;21.73;;;10.30;;
31095;SDS011;17749;51.962;8.560;2022-10-31T11:15:32;19.90;;;11.43;;
31095;SDS011;17749;51.962;8.560;2022-10-31T11:18:03;23.33;;;12.57;;
31095;SDS011;17749;51.962;8.560;2022-10-31T11:20:34;21.73;;;12.45;;
31095;SDS011;17749;51.962;8.560;2022-10-31T11:25:55;23.92;;;12.68;;
31095;SDS011;17749;51.962;8.560;2022-10-31T11:28:27;18.80;;;10.60;;
31095;SDS011;17749;51.962;8.560;2022-10-31T11:31:08;22.73;;;11.27;;
31095;SDS011;17749;51.962;8.560;2022-10-31T11:33:39;23.60;;;13.80;;
31095;SDS011;17749;51.962;8.560;2022-10-31T11:36:21;25.55;;;12.80;;
31095;SDS011;17749;51.962;8.560;2022-10-31T11:38:53;27.35;;;14.50;;
31095;SDS011;17749;51.962;8.560;2022-10-31T11:41:28;29.27;;;14.40;;
31095;SDS011;17749;51.962;8.560;2022-10-31T11:49:02;23.95;;;14.02;;
31095;SDS011;17749;51.962;8.560;2022-10-31T11:51:33;20.67;;;12.13;;
31095;SDS011;17749;51.962;8.560;2022-10-31T11:54:01;24.25;;;12.98;;
31095;SDS011;17749;51.962;8.560;2022-10-31T11:56:40;25.08;;;13.32;;
31095;SDS011;17749;51.962;8.560;2022-10-31T11:59:17;20.02;;;12.05;;
31095;SDS011;17749;51.962;8.560;2022-10-31T12:01:49;20.60;;;11.88;;
31095;SDS011;17749;51.962;8.560;2022-10-31T12:04:17;25.15;;;12.23;;
31095;SDS011;17749;51.962;8.560;2022-10-31T12:06:46;25.23;;;14.05;;
31095;SDS011;17749;51.962;8.560;2022-10-31T12:17:15;19.67;;;10.98;;
31095;SDS011;17749;51.962;8.560;2022-10-31T12:22:38;17.45;;;11.38;;
31095;SDS011;17749;51.962;8.560;2022-10-31T12:28:14;24.02;;;11.95;;
31095;SDS011;17749;51.962;8.560;2022-10-31T12:31:13;22.45;;;11.27;;
31095;SDS011;17749;51.962;8.560;2022-10-31T12:33:57;15.90;;;10.43;;
31095;SDS011;17749;51.962;8.560;2022-10-31T12:39:33;25.13;;;12.82;;
31095;SDS011;17749;51.962;8.560;2022-10-31T13:01:50;29.08;;;12.35;;
31095;SDS011;17749;51.962;8.560;2022-10-31T13:07:13;19.10;;;11.23;;
31095;SDS011;17749;51.962;8.560;2022-10-31T13:12:30;20.25;;;11.55;;
31095;SDS011;17749;51.962;8.560;2022-10-31T13:15:22;17.63;;;10.90;;
31095;SDS011;17749;51.962;8.560;2022-10-31T13:20:57;20.58;;;10.90;;
31095;SDS011;17749;51.962;8.560;2022-10-31T13:23:31;16.88;;;10.18;;
31095;SDS011;17749;51.962;8.560;2022-10-31T13:29:25;14.70;;;8.35;;
31095;SDS011;17749;51.962;8.560;2022-10-31T13:31:59;18.85;;;8.93;;
31095;SDS011;17749;51.962;8.560;2022-10-31T13:34:32;14.52;;;8.85;;
31095;SDS011;17749;51.962;8.560;2022-10-31T13:45:22;17.05;;;9.13;;
31095;SDS011;17749;51.962;8.560;2022-10-31T13:50:43;15.63;;;7.97;;
31095;SDS011;17749;51.962;8.560;2022-10-31T13:53:22;18.00;;;8.68;;
31095;SDS011;17749;51.962;8.560;2022-10-31T13:58:34;23.42;;;8.23;;
31095;SDS011;17749;51.962;8.560;2022-10-31T14:03:33;20.23;;;9.30;;
31095;SDS011;17749;51.962;8.560;2022-10-31T14:06:23;13.60;;;8.80;;
31095;SDS011;17749;51.962;8.560;2022-10-31T14:09:02;14.73;;;8.65;;
31095;SDS011;17749;51.962;8.560;2022-10-31T14:11:30;19.88;;;9.63;;
31095;SDS011;17749;51.962;8.560;2022-10-31T14:14:02;22.20;;;12.52;;
31095;SDS011;17749;51.962;8.560;2022-10-31T14:16:37;16.33;;;9.80;;
31095;SDS011;17749;51.962;8.560;2022-10-31T14:19:17;19.95;;;9.63;;
31095;SDS011;17749;51.962;8.560;2022-10-31T14:21:45;17.35;;;9.88;;
31095;SDS011;17749;51.962;8.560;2022-10-31T14:29:30;19.30;;;9.02;;
31095;SDS011;17749;51.962;8.560;2022-10-31T14:34:41;18.35;;;9.82;;
31095;SDS011;17749;51.962;8.560;2022-10-31T14:42:40;16.50;;;9.73;;
31095;SDS011;17749;51.962;8.560;2022-10-31T14:45:29;17.17;;;8.98;;
31095;SDS011;17749;51.962;8.560;2022-10-31T14:48:01;16.95;;;9.02;;
31095;SDS011;17749;51.962;8.560;2022-10-31T14:53:04;17.48;;;9.88;;
31095;SDS011;17749;51.962;8.560;2022-10-31T14:55:32;20.10;;;11.43;;
31095;SDS011;17749;51.962;8.560;2022-10-31T14:58:01;19.58;;;9.35;;
31095;SDS011;17749;51.962;8.560;2022-10-31T15:00:32;16.88;;;10.18;;
31095;SDS011;17749;51.962;8.560;2022-10-31T15:05:32;22.15;;;10.25;;
31095;SDS011;17749;51.962;8.560;2022-10-31T15:08:12;19.38;;;9.40;;
31095;SDS011;17749;51.962;8.560;2022-10-31T15:10:52;14.57;;;8.73;;
31095;SDS011;17749;51.962;8.560;2022-10-31T15:13:19;23.40;;;9.45;;
31095;SDS011;17749;51.962;8.560;2022-10-31T15:15:51;21.27;;;9.75;;
31095;SDS011;17749;51.962;8.560;2022-10-31T15:18:23;21.67;;;9.60;;
31095;SDS011;17749;51.962;8.560;2022-10-31T15:20:53;19.92;;;9.63;;
31095;SDS011;17749;51.962;8.560;2022-10-31T15:23:23;23.63;;;10.45;;
31095;SDS011;17749;51.962;8.560;2022-10-31T15:25:59;47.53;;;14.80;;
31095;SDS011;17749;51.962;8.560;2022-10-31T15:28:27;20.35;;;9.40;;
31095;SDS011;17749;51.962;8.560;2022-10-31T15:30:59;16.23;;;9.90;;
31095;SDS011;17749;51.962;8.560;2022-10-31T15:33:28;17.92;;;10.05;;
31095;SDS011;17749;51.962;8.560;2022-10-31T15:36:04;18.00;;;9.13;;
31095;SDS011;17749;51.962;8.560;2022-10-31T15:38:32;17.50;;;9.23;;
31095;SDS011;17749;51.962;8.560;2022-10-31T15:41:06;18.52;;;9.98;;
31095;SDS011;17749;51.962;8.560;2022-10-31T15:44:15;16.85;;;8.25;;
31095;SDS011;17749;51.962;8.560;2022-10-31T15:46:54;16.52;;;9.40;;
31095;SDS011;17749;51.962;8.560;2022-10-31T15:49:57;17.15;;;9.15;;
31095;SDS011;17749;51.962;8.560;2022-10-31T15:55:02;19.88;;;8.48;;
31095;SDS011;17749;51.962;8.560;2022-10-31T15:59:59;17.08;;;8.50;;
31095;SDS011;17749;51.962;8.560;2022-10-31T16:02:26;19.50;;;9.05;;
31095;SDS011;17749;51.962;8.560;2022-10-31T16:04:58;19.35;;;9.00;;
31095;SDS011;17749;51.962;8.560;2022-10-31T16:07:28;20.73;;;9.77;;
31095;SDS011;17749;51.962;8.560;2022-10-31T16:09:57;15.73;;;9.55;;
31095;SDS011;17749;51.962;8.560;2022-10-31T16:12:34;16.02;;;9.38;;
31095;SDS011;17749;51.962;8.560;2022-10-31T16:15:03;16.77;;;9.80;;
31095;SDS011;17749;51.962;8.560;2022-10-31T16:17:31;20.60;;;9.60;;
31095;SDS011;17749;51.962;8.560;2022-10-31T16:19:59;21.70;;;9.57;;
31095;SDS011;17749;51.962;8.560;2022-10-31T16:22:35;14.82;;;8.60;;
31095;SDS011;17749;51.962;8.560;2022-10-31T16:25:17;17.30;;;8.98;;
31095;SDS011;17749;51.962;8.560;2022-10-31T16:27:52;17.20;;;9.30;;
31095;SDS011;17749;51.962;8.560;2022-10-31T16:30:40;23.83;;;8.45;;
31095;SDS011;17749;51.962;8.560;2022-10-31T16:33:33;15.50;;;9.30;;
31095;SDS011;17749;51.962;8.560;2022-10-31T16:39:01;21.13;;;9.45;;
31095;SDS011;17749;51.962;8.560;2022-10-31T16:41:28;20.13;;;8.88;;
31095;SDS011;17749;51.962;8.560;2022-10-31T16:43:55;16.80;;;8.75;;
31095;SDS011;17749;51.962;8.560;2022-10-31T16:46:23;14.30;;;8.65;;
31095;SDS011;17749;51.962;8.560;2022-10-31T16:48:52;19.20;;;9.57;;
31095;SDS011;17749;51.962;8.560;2022-10-31T16:51:19;18.92;;;8.93;;
31095;SDS011;17749;51.962;8.560;2022-10-31T16:53:46;17.05;;;10.27;;
31095;SDS011;17749;51.962;8.560;2022-10-31T16:56:17;14.45;;;8.85;;
31095;SDS011;17749;51.962;8.560;2022-10-31T16:58:54;13.95;;;9.18;;
31095;SDS011;17749;51.962;8.560;2022-10-31T17:01:21;13.27;;;8.73;;
31095;SDS011;17749;51.962;8.560;2022-10-31T17:03:48;13.32;;;8.52;;
31095;SDS011;17749;51.962;8.560;2022-10-31T17:06:15;13.68;;;9.73;;
31095;SDS011;17749;51.962;8.560;2022-10-31T17:08:43;15.25;;;8.65;;
31095;SDS011;17749;51.962;8.560;2022-10-31T17:11:28;17.42;;;9.23;;
31095;SDS011;17749;51.962;8.560;2022-10-31T17:13:55;16.25;;;9.30;;
31095;SDS011;17749;51.962;8.560;2022-10-31T17:16:22;15.52;;;10.05;;
31095;SDS011;17749;51.962;8.560;2022-10-31T17:18:49;20.98;;;11.60;;
31095;SDS011;17749;51.962;8.560;2022-10-31T17:21:23;22.30;;;11.20;;
31095;SDS011;17749;51.962;8.560;2022-10-31T17:23:51;19.42;;;10.57;;
31095;SDS011;17749;51.962;8.560;2022-10-31T17:26:19;15.15;;;9.90;;
31095;SDS011;17749;51.962;8.560;2022-10-31T17:28:46;18.55;;;10.43;;
31095;SDS011;17749;51.962;8.560;2022-10-31T17:31:32;17.27;;;11.82;;
31095;SDS011;17749;51.962;8.560;2022-10-31T17:34:02;19.77;;;13.07;;
31095;SDS011;17749;51.962;8.560;2022-10-31T17:36:33;28.42;;;14.27;;
31095;SDS011;17749;51.962;8.560;2022-10-31T17:39:01;23.98;;;12.95;;
31095;SDS011;17749;51.962;8.560;2022-10-31T17:43:58;21.75;;;12.10;;
31095;SDS011;17749;51.962;8.560;2022-10-31T17:46:25;20.65;;;11.57;;
31095;SDS011;17749;51.962;8.560;2022-10-31T17:48:53;23.10;;;12.00;;
31095;SDS011;17749;51.962;8.560;2022-10-31T17:51:20;21.27;;;12.20;;
31095;SDS011;17749;51.962;8.560;2022-10-31T17:53:47;20.38;;;13.25;;
31095;SDS011;17749;51.962;8.560;2022-10-31T17:56:14;22.10;;;13.90;;
31095;SDS011;17749;51.962;8.560;2022-10-31T17:58:41;21.38;;;13.27;;
31095;SDS011;17749;51.962;8.560;2022-10-31T18:01:10;23.20;;;12.13;;
31095;SDS011;17749;51.962;8.560;2022-10-31T18:03:42;31.85;;;13.32;;
31095;SDS011;17749;51.962;8.560;2022-10-31T18:06:10;24.67;;;13.18;;
31095;SDS011;17749;51.962;8.560;2022-10-31T18:08:39;23.77;;;13.38;;
31095;SDS011;17749;51.962;8.560;2022-10-31T18:11:07;27.60;;;13.50;;
31095;SDS011;17749;51.962;8.560;2022-10-31T18:13:36;22.88;;;13.63;;
31095;SDS011;17749;51.962;8.560;2022-10-31T18:16:08;21.60;;;13.13;;
31095;SDS011;17749;51.962;8.560;2022-10-31T18:18:40;22.67;;;13.57;;
31095;SDS011;17749;51.962;8.560;2022-10-31T18:21:08;29.55;;;12.73;;
31095;SDS011;17749;51.962;8.560;2022-10-31T18:23:38;27.10;;;13.77;;
31095;SDS011;17749;51.962;8.560;2022-10-31T18:26:05;23.88;;;13.00;;
31095;SDS011;17749;51.962;8.560;2022-10-31T18:28:32;29.38;;;13.63;;
31095;SDS011;17749;51.962;8.560;2022-10-31T18:30:59;22.20;;;13.60;;
31095;SDS011;17749;51.962;8.560;2022-10-31T18:33:26;26.42;;;14.27;;
31095;SDS011;17749;51.962;8.560;2022-10-31T18:35:53;27.67;;;14.20;;
31095;SDS011;17749;51.962;8.560;2022-10-31T18:38:21;20.98;;;12.77;;
31095;SDS011;17749;51.962;8.560;2022-10-31T18:40:49;22.90;;;12.30;;
31095;SDS011;17749;51.962;8.560;2022-10-31T18:43:16;27.77;;;13.18;;
31095;SDS011;17749;51.962;8.560;2022-10-31T18:45:43;24.27;;;13.30;;
31095;SDS011;17749;51.962;8.560;2022-10-31T18:48:15;26.50;;;11.80;;
31095;SDS011;17749;51.962;8.560;2022-10-31T18:50:43;22.98;;;12.25;;
31095;SDS011;17749;51.962;8.560;2022-10-31T18:53:10;25.98;;;11.32;;
31095;SDS011;17749;51.962;8.560;2022-10-31T18:55:39;23.50;;;12.45;;
31095;SDS011;17749;51.962;8.560;2022-10-31T18:58:14;26.85;;;11.70;;
31095;SDS011;17749;51.962;8.560;2022-10-31T19:00:42;20.95;;;11.68;;
31095;SDS011;17749;51.962;8.560;2022-10-31T19:03:09;22.33;;;12.13;;
31095;SDS011;17749;51.962;8.560;2022-10-31T19:05:36;24.55;;;11.95;;
31095;SDS011;17749;51.962;8.560;2022-10-31T19:08:03;21.13;;;12.00;;
31095;SDS011;17749;51.962;8.560;2022-10-31T19:10:34;19.83;;;11.57;;
31095;SDS011;17749;51.962;8.560;2022-10-31T19:13:05;18.00;;;11.15;;
31095;SDS011;17749;51.962;8.560;2022-10-31T19:15:33;16.08;;;10.77;;
31095;SDS011;17749;51.962;8.560;2022-10-31T19:18:04;22.25;;;11.55;;
31095;SDS011;17749;51.962;8.560;2022-10-31T19:20:31;19.13;;;11.02;;
31095;SDS011;17749;51.962;8.560;2022-10-31T19:23:03;18.95;;;10.98;;
31095;SDS011;17749;51.962;8.560;2022-10-31T19:25:33;23.15;;;10.18;;
31095;SDS011;17749;51.962;8.560;2022-10-31T19:28:04;19.70;;;10.73;;
31095;SDS011;17749;51.962;8.560;2022-10-31T19:35:28;19.95;;;10.95;;
31095;SDS011;17749;51.962;8.560;2022-10-31T19:37:55;17.63;;;11.25;;
31095;SDS011;17749;51.962;8.560;2022-10-31T19:40:21;19.30;;;11.27;;
31095;SDS011;17749;51.962;8.560;2022-10-31T19:42:48;25.77;;;11.48;;
31095;SDS011;17749;51.962;8.560;2022-10-31T19:45:15;24.00;;;12.68;;
31095;SDS011;17749;51.962;8.560;2022-10-31T19:47:45;20.88;;;11.05;;
31095;SDS011;17749;51.962;8.560;2022-10-31T19:50:12;23.83;;;11.73;;
31095;SDS011;17749;51.962;8.560;2022-10-31T19:52:39;22.10;;;11.30;;
31095;SDS011;17749;51.962;8.560;2022-10-31T19:55:06;19.60;;;11.05;;
31095;SDS011;17749;51.962;8.560;2022-10-31T19:57:35;18.20;;;11.25;;
31095;SDS011;17749;51.962;8.560;2022-10-31T20:00:22;23.33;;;11.95;;
31095;SDS011;17749;51.962;8.560;2022-10-31T20:02:49;24.90;;;10.45;;
31095;SDS011;17749;51.962;8.560;2022-10-31T20:05:17;30.48;;;16.60;;
31095;SDS011;17749;51.962;8.560;2022-10-31T20:07:43;25.48;;;12.90;;
31095;SDS011;17749;51.962;8.560;2022-10-31T20:10:10;24.40;;;11.38;;
31095;SDS011;17749;51.962;8.560;2022-10-31T20:12:37;17.17;;;10.13;;
31095;SDS011;17749;51.962;8.560;2022-10-31T20:15:05;21.50;;;11.60;;
31095;SDS011;17749;51.962;8.560;2022-10-31T20:17:32;29.40;;;12.13;;
31095;SDS011;17749;51.962;8.560;2022-10-31T20:20:08;22.58;;;11.00;;
31095;SDS011;17749;51.962;8.560;2022-10-31T20:22:45;18.98;;;11.35;;
31095;SDS011;17749;51.962;8.560;2022-10-31T20:25:15;23.38;;;12.32;;
31095;SDS011;17749;51.962;8.560;2022-10-31T20:27:43;22.15;;;10.85;;
31095;SDS011;17749;51.962;8.560;2022-10-31T20:30:10;20.75;;;11.13;;
31095;SDS011;17749;51.962;8.560;2022-10-31T20:32:37;18.67;;;10.82;;
31095;SDS011;17749;51.962;8.560;2022-10-31T20:35:04;19.40;;;10.43;;
31095;SDS011;17749;51.962;8.560;2022-10-31T20:37:31;18.80;;;10.02;;
31095;SDS011;17749;51.962;8.560;2022-10-31T20:39:58;19.38;;;10.52;;
31095;SDS011;17749;51.962;8.560;2022-10-31T20:42:25;25.02;;;10.98;;
31095;SDS011;17749;51.962;8.560;2022-10-31T20:44:52;20.67;;;10.77;;
31095;SDS011;17749;51.962;8.560;2022-10-31T20:47:19;23.83;;;11.10;;
31095;SDS011;17749;51.962;8.560;2022-10-31T20:49:51;17.20;;;10.50;;
31095;SDS011;17749;51.962;8.560;2022-10-31T20:52:18;20.38;;;10.35;;
31095;SDS011;17749;51.962;8.560;2022-10-31T20:54:45;19.15;;;10.10;;
31095;SDS011;17749;51.962;8.560;2022-10-31T20:57:18;17.25;;;9.77;;
31095;SDS011;17749;51.962;8.560;2022-10-31T20:59:45;16.65;;;9.52;;
31095;SDS011;17749;51.962;8.560;2022-10-31T21:02:16;18.42;;;8.95;;
31095;SDS011;17749;51.962;8.560;2022-10-31T21:04:44;14.85;;;9.35;;
31095;SDS011;17749;51.962;8.560;2022-10-31T21:07:11;22.13;;;9.65;;
31095;SDS011;17749;51.962;8.560;2022-10-31T21:09:37;18.15;;;9.10;;
31095;SDS011;17749;51.962;8.560;2022-10-31T21:12:04;18.42;;;10.52;;
31095;SDS011;17749;51.962;8.560;2022-10-31T21:14:32;19.63;;;10.15;;
31095;SDS011;17749;51.962;8.560;2022-10-31T21:16:59;22.83;;;11.98;;
31095;SDS011;17749;51.962;8.560;2022-10-31T21:19:26;17.23;;;12.07;;
31095;SDS011;17749;51.962;8.560;2022-10-31T21:21:53;19.95;;;12.68;;
31095;SDS011;17749;51.962;8.560;2022-10-31T21:24:21;17.95;;;10.63;;
31095;SDS011;17749;51.962;8.560;2022-10-31T21:26:49;20.13;;;9.98;;
31095;SDS011;17749;51.962;8.560;2022-10-31T21:29:17;16.52;;;10.00;;
